Time,TemperatureF,DewpointF,PressureIn,WindDirection,WindDirectionDegrees,WindSpeedMPH,WindSpeedGustMPH,Humidity,HourlyPrecipIn,Conditions,Clouds,dailyrainin,SoftwareType,DateUTC
2013-05-28 00:07:00,51.4,42.0,30.20,East,82,0.0,0.0,70,0.00,,,0.00,weatherlink.com 1.10,2013-05-28 04:07:00,
2013-05-28 00:24:00,51.2,42.0,30.20,East,82,0.0,0.0,71,0.00,,,0.00,weatherlink.com 1.10,2013-05-28 04:24:00,
2013-05-28 00:39:00,51.0,42.0,30.20,East,82,0.0,0.0,71,0.00,,,0.00,weatherlink.com 1.10,2013-05-28 04:39:00,
2013-05-28 00:53:00,50.9,43.0,30.21,East,82,0.0,0.0,74,0.00,,,0.00,weatherlink.com 1.10,2013-05-28 04:53:00,
2013-05-28 01:10:00,50.1,42.0,30.21,East,82,0.0,0.0,73,0.00,,,0.00,weatherlink.com 1.10,2013-05-28 05:10:00,
2013-05-28 01:25:00,49.4,41.0,30.21,East,82,0.0,0.0,73,0.00,,,0.00,weatherlink.com 1.10,2013-05-28 05:25:00,
2013-05-28 01:40:00,48.7,40.0,30.21,East,82,0.0,0.0,73,0.00,,,0.00,weatherlink.com 1.10,2013-05-28 05:40:00,
2013-05-28 01:55:00,48.5,40.0,30.21,East,82,0.0,0.0,72,0.00,,,0.00,weatherlink.com 1.10,2013-05-28 05:55:00,
2013-05-28 02:10:00,48.3,40.0,30.21,East,82,0.0,0.0,72,0.00,,,0.00,weatherlink.com 1.10,2013-05-28 06:10:00,
2013-05-28 02:25:00,48.2,40.0,30.21,East,82,0.0,0.0,74,0.00,,,0.00,weatherlink.com 1.10,2013-05-28 06:25:00,
2013-05-28 02:42:00,47.9,39.0,30.21,East,82,0.0,0.0,72,0.00,,,0.00,weatherlink.com 1.10,2013-05-28 06:42:00,
2013-05-28 02:57:00,47.9,41.0,30.21,East,82,0.0,0.0,76,0.00,,,0.00,weatherlink.com 1.10,2013-05-28 06:57:00,
2013-05-28 03:12:00,47.5,40.0,30.21,East,82,0.0,0.0,76,0.00,,,0.00,weatherlink.com 1.10,2013-05-28 07:12:00,
2013-05-28 03:27:00,47.1,40.0,30.20,East,82,0.0,0.0,77,0.00,,,0.00,weatherlink.com 1.10,2013-05-28 07:27:00,
2013-05-28 03:42:00,47.0,41.0,30.21,East,82,0.0,0.0,79,0.00,,,0.00,weatherlink.com 1.10,2013-05-28 07:42:00,
2013-05-28 03:58:00,46.4,40.0,30.20,East,82,0.0,0.0,78,0.00,,,0.00,weatherlink.com 1.10,2013-05-28 07:58:00,
2013-05-28 04:14:00,45.9,39.0,30.21,East,82,0.0,0.0,78,0.00,,,0.00,weatherlink.com 1.10,2013-05-28 08:14:00,
2013-05-28 04:28:00,45.7,40.0,30.21,East,82,0.0,0.0,79,0.00,,,0.00,weatherlink.com 1.10,2013-05-28 08:28:00,
2013-05-28 04:43:00,45.5,40.0,30.21,East,82,0.0,0.0,80,0.00,,,0.00,weatherlink.com 1.10,2013-05-28 08:43:00,
2013-05-28 05:00:00,45.3,40.0,30.21,East,82,0.0,0.0,80,0.00,,,0.00,weatherlink.com 1.10,2013-05-28 09:00:00,
2013-05-28 05:15:00,45.3,40.0,30.21,East,82,0.0,0.0,81,0.00,,,0.00,weatherlink.com 1.10,2013-05-28 09:15:00,
2013-05-28 05:30:00,45.2,40.0,30.21,East,82,0.0,0.0,81,0.00,,,0.00,weatherlink.com 1.10,2013-05-28 09:30:00,
2013-05-28 05:45:00,45.5,40.0,30.22,East,82,0.0,0.0,81,0.00,,,0.00,weatherlink.com 1.10,2013-05-28 09:45:00,
2013-05-28 06:00:00,45.6,40.0,30.22,East,82,0.0,0.0,81,0.00,,,0.00,weatherlink.com 1.10,2013-05-28 10:00:00,
2013-05-28 06:17:00,45.6,40.0,30.22,East,82,0.0,0.0,81,0.00,,,0.00,weatherlink.com 1.10,2013-05-28 10:17:00,
2013-05-28 06:31:00,45.8,41.0,30.23,East,82,0.0,0.0,82,0.00,,,0.00,weatherlink.com 1.10,2013-05-28 10:31:00,
2013-05-28 06:47:00,46.0,41.0,30.23,East,82,0.0,0.0,82,0.00,,,0.00,weatherlink.com 1.10,2013-05-28 10:47:00,
2013-05-28 07:02:00,46.6,42.0,30.22,East,82,0.0,0.0,83,0.00,,,0.00,weatherlink.com 1.10,2013-05-28 11:02:00,
2013-05-28 07:17:00,47.2,42.0,30.22,East,82,0.0,0.0,83,0.00,,,0.00,weatherlink.com 1.10,2013-05-28 11:17:00,
2013-05-28 07:34:00,48.7,43.0,30.22,East,82,0.0,0.0,82,0.00,,,0.00,weatherlink.com 1.10,2013-05-28 11:34:00,
2013-05-28 07:48:00,50.2,44.0,30.23,North,9,0.0,1.0,80,0.00,,,0.00,weatherlink.com 1.10,2013-05-28 11:48:00,
2013-05-28 08:04:00,52.6,42.0,30.23,North,11,0.0,1.0,68,0.00,,,0.00,weatherlink.com 1.10,2013-05-28 12:04:00,
2013-05-28 08:19:00,54.6,45.0,30.23,North,5,0.0,0.0,71,0.00,,,0.00,weatherlink.com 1.10,2013-05-28 12:19:00,
2013-05-28 08:34:00,55.9,47.0,30.23,North,355,0.0,0.0,71,0.00,,,0.00,weatherlink.com 1.10,2013-05-28 12:34:00,
2013-05-28 08:50:00,58.2,41.0,30.23,West,274,0.0,3.0,54,0.00,,,0.00,weatherlink.com 1.10,2013-05-28 12:50:00,
2013-05-28 09:05:00,59.9,42.0,30.23,ENE,61,0.0,1.0,52,0.00,,,0.00,weatherlink.com 1.10,2013-05-28 13:05:00,
2013-05-28 09:20:00,61.8,45.0,30.23,NE,38,0.0,0.0,55,0.00,,,0.00,weatherlink.com 1.10,2013-05-28 13:20:00,
2013-05-28 09:36:00,65.5,43.0,30.23,SE,134,1.0,3.0,45,0.00,,,0.00,weatherlink.com 1.10,2013-05-28 13:36:00,
2013-05-28 09:52:00,67.3,45.0,30.23,North,355,0.0,4.0,45,0.00,,,0.00,weatherlink.com 1.10,2013-05-28 13:52:00,
2013-05-28 10:07:00,68.7,45.0,30.23,SSE,159,0.0,2.0,42,0.00,,,0.00,weatherlink.com 1.10,2013-05-28 14:07:00,
2013-05-28 10:22:00,68.3,45.0,30.23,SE,136,0.0,4.0,43,0.00,,,0.00,weatherlink.com 1.10,2013-05-28 14:22:00,
2013-05-28 10:37:00,68.6,46.0,30.23,SE,129,0.0,5.0,44,0.00,,,0.00,weatherlink.com 1.10,2013-05-28 14:37:00,
2013-05-28 10:52:00,69.6,48.0,30.23,West,277,0.0,2.0,47,0.00,,,0.00,weatherlink.com 1.10,2013-05-28 14:52:00,
2013-05-28 11:08:00,70.2,45.0,30.23,ENE,71,0.0,3.0,41,0.00,,,0.00,weatherlink.com 1.10,2013-05-28 15:08:00,
2013-05-28 11:24:00,70.2,45.0,30.23,SSE,151,0.0,2.0,41,0.00,,,0.00,weatherlink.com 1.10,2013-05-28 15:24:00,
2013-05-28 11:38:00,71.1,50.0,30.23,NNW,342,0.0,1.0,48,0.00,,,0.00,weatherlink.com 1.10,2013-05-28 15:38:00,
2013-05-28 11:54:00,71.2,47.0,30.22,South,186,3.0,3.0,43,0.00,,,0.00,weatherlink.com 1.10,2013-05-28 15:54:00,
2013-05-28 12:08:00,70.8,45.0,30.22,SW,230,0.0,8.0,39,0.00,,,0.00,weatherlink.com 1.10,2013-05-28 16:08:00,
2013-05-28 12:25:00,70.3,46.0,30.22,West,261,0.0,3.0,42,0.00,,,0.00,weatherlink.com 1.10,2013-05-28 16:25:00,
2013-05-28 12:40:00,69.2,44.0,30.22,South,187,1.0,5.0,40,0.00,,,0.00,weatherlink.com 1.10,2013-05-28 16:40:00,
2013-05-28 12:55:00,68.2,42.0,30.22,SSW,195,0.0,3.0,39,0.00,,,0.00,weatherlink.com 1.10,2013-05-28 16:55:00,
2013-05-28 13:10:00,67.6,44.0,30.21,SW,216,0.0,3.0,43,0.00,,,0.00,weatherlink.com 1.10,2013-05-28 17:10:00,
2013-05-28 13:26:00,67.1,47.0,30.21,SSW,210,0.0,2.0,49,0.00,,,0.00,weatherlink.com 1.10,2013-05-28 17:26:00,
2013-05-28 13:42:00,66.5,48.0,30.21,SSW,207,0.0,1.0,51,0.00,,,0.00,weatherlink.com 1.10,2013-05-28 17:42:00,
2013-05-28 13:56:00,65.5,49.0,30.21,WNW,299,0.0,4.0,56,0.00,,,0.00,weatherlink.com 1.10,2013-05-28 17:56:00,
2013-05-28 14:12:00,63.7,52.0,30.22,ESE,118,0.0,2.0,66,0.00,,,0.00,weatherlink.com 1.10,2013-05-28 18:12:00,
2013-05-28 14:27:00,62.5,53.0,30.22,SE,132,0.0,0.0,72,0.01,,,0.01,weatherlink.com 1.10,2013-05-28 18:27:00,
2013-05-28 14:42:00,61.1,54.0,30.22,SE,132,0.0,0.0,76,0.02,,,0.02,weatherlink.com 1.10,2013-05-28 18:42:00,
2013-05-28 14:58:00,59.8,53.0,30.22,SE,132,0.0,0.0,78,0.03,,,0.03,weatherlink.com 1.10,2013-05-28 18:58:00,
2013-05-28 15:13:00,59.3,54.0,30.22,SE,132,0.0,0.0,81,0.05,,,0.05,weatherlink.com 1.10,2013-05-28 19:13:00,
2013-05-28 15:28:00,58.9,53.0,30.22,SE,132,0.0,0.0,82,0.07,,,0.08,weatherlink.com 1.10,2013-05-28 19:28:00,
2013-05-28 15:44:00,58.6,54.0,30.22,SE,132,0.0,0.0,84,0.08,,,0.10,weatherlink.com 1.10,2013-05-28 19:44:00,
2013-05-28 16:00:00,58.2,53.0,30.21,SE,132,0.0,0.0,84,0.08,,,0.12,weatherlink.com 1.10,2013-05-28 20:00:00,
2013-05-28 16:15:00,58.1,54.0,30.22,SE,132,0.0,0.0,85,0.07,,,0.13,weatherlink.com 1.10,2013-05-28 20:15:00,
2013-05-28 16:30:00,58.0,54.0,30.21,SE,132,0.0,1.0,86,0.07,,,0.15,weatherlink.com 1.10,2013-05-28 20:30:00,
2013-05-28 16:45:00,57.8,54.0,30.21,SE,132,0.0,1.0,86,0.04,,,0.15,weatherlink.com 1.10,2013-05-28 20:45:00,
2013-05-28 17:00:00,57.5,54.0,30.21,SSE,163,0.0,1.0,87,0.03,,,0.15,weatherlink.com 1.10,2013-05-28 21:00:00,
2013-05-28 17:15:00,56.7,53.0,30.20,SW,221,0.0,1.0,86,0.02,,,0.15,weatherlink.com 1.10,2013-05-28 21:15:00,
2013-05-28 17:31:00,56.4,53.0,30.21,South,186,0.0,0.0,87,0.01,,,0.16,weatherlink.com 1.10,2013-05-28 21:31:00,
2013-05-28 17:47:00,56.2,52.0,30.21,SE,125,0.0,1.0,87,0.01,,,0.16,weatherlink.com 1.10,2013-05-28 21:47:00,
2013-05-28 18:02:00,56.0,52.0,30.20,SE,126,0.0,1.0,87,0.02,,,0.17,weatherlink.com 1.10,2013-05-28 22:02:00,
2013-05-28 18:17:00,55.9,52.0,30.19,NNE,32,0.0,1.0,88,0.02,,,0.17,weatherlink.com 1.10,2013-05-28 22:17:00,
2013-05-28 18:33:00,55.8,52.0,30.19,SSE,157,0.0,2.0,88,0.02,,,0.18,weatherlink.com 1.10,2013-05-28 22:33:00,
2013-05-28 18:48:00,55.7,52.0,30.19,SE,142,0.0,2.0,88,0.02,,,0.18,weatherlink.com 1.10,2013-05-28 22:48:00,
2013-05-28 19:04:00,55.8,53.0,30.19,SSE,148,0.0,1.0,89,0.01,,,0.18,weatherlink.com 1.10,2013-05-28 23:04:00,
2013-05-28 19:19:00,55.8,53.0,30.19,SE,128,0.0,2.0,89,0.01,,,0.18,weatherlink.com 1.10,2013-05-28 23:19:00,
2013-05-28 19:33:00,55.8,53.0,30.19,SW,229,0.0,3.0,89,0.00,,,0.18,weatherlink.com 1.10,2013-05-28 23:33:00,
2013-05-28 19:50:00,55.8,53.0,30.18,North,360,0.0,1.0,90,0.00,,,0.18,weatherlink.com 1.10,2013-05-28 23:50:00,
2013-05-28 20:05:00,55.7,53.0,30.18,East,99,0.0,2.0,90,0.00,,,0.18,weatherlink.com 1.10,2013-05-29 00:05:00,
2013-05-28 20:20:00,55.5,53.0,30.17,SE,130,0.0,2.0,90,0.01,,,0.19,weatherlink.com 1.10,2013-05-29 00:20:00,
2013-05-28 20:35:00,55.5,53.0,30.16,South,182,0.0,4.0,90,0.01,,,0.19,weatherlink.com 1.10,2013-05-29 00:35:00,
2013-05-28 20:50:00,55.5,53.0,30.17,WSW,238,0.0,1.0,90,0.01,,,0.19,weatherlink.com 1.10,2013-05-29 00:50:00,
2013-05-28 21:05:00,55.5,53.0,30.17,ESE,121,0.0,2.0,90,0.01,,,0.19,weatherlink.com 1.10,2013-05-29 01:05:00,
2013-05-28 21:22:00,55.6,53.0,30.17,SSW,210,0.0,4.0,90,0.00,,,0.19,weatherlink.com 1.10,2013-05-29 01:22:00,
2013-05-28 21:37:00,55.7,53.0,30.18,SSW,210,0.0,1.0,90,0.00,,,0.19,weatherlink.com 1.10,2013-05-29 01:37:00,
2013-05-28 21:52:00,55.8,53.0,30.17,ESE,103,0.0,2.0,91,0.00,,,0.19,weatherlink.com 1.10,2013-05-29 01:52:00,
2013-05-28 22:07:00,55.8,53.0,30.17,SE,133,3.0,3.0,91,0.00,,,0.19,weatherlink.com 1.10,2013-05-29 02:07:00,
2013-05-28 22:23:00,55.8,53.0,30.17,East,92,0.0,3.0,91,0.00,,,0.19,weatherlink.com 1.10,2013-05-29 02:23:00,
2013-05-28 22:38:00,55.8,53.0,30.17,SE,128,0.0,3.0,91,0.00,,,0.19,weatherlink.com 1.10,2013-05-29 02:38:00,
2013-05-28 22:53:00,55.9,53.0,30.16,ESE,119,0.0,1.0,91,0.01,,,0.20,weatherlink.com 1.10,2013-05-29 02:53:00,
2013-05-28 23:08:00,56.0,54.0,30.17,SSW,197,0.0,0.0,91,0.01,,,0.20,weatherlink.com 1.10,2013-05-29 03:08:00,
2013-05-28 23:23:00,56.0,54.0,30.16,WSW,237,0.0,1.0,91,0.01,,,0.20,weatherlink.com 1.10,2013-05-29 03:23:00,
2013-05-28 23:40:00,56.0,54.0,30.17,SSE,149,0.0,3.0,91,0.00,,,0.20,weatherlink.com 1.10,2013-05-29 03:40:00,
2013-05-28 23:55:00,56.0,54.0,30.16,SSE,149,0.0,0.0,91,0.00,,,0.20,weatherlink.com 1.10,2013-05-29 03:55:00,